ICAO code: LHPR | IATA code: QGY | SITA: QGYAPXH | AFTN: LHPRZPZX

Időjárási adatok

METAR LHPR 181045Z AUTO 11006KT 040V190 CAVOK 30/11 Q1017 NOSIG=
TAF LHPR 180815Z 1809/1818 12010KT CAVOK BECMG 1816/1818 VRB03KT=
Nem volt érdemleges időjárási jelenség az elmúlt órában
2021-06-18 10:40:00 UTC
Hőmérséklet
29.6 °C
 
Harmatpont
11.4 °C
 
Rel. páratartalom
33%
 
QNH
1017.9 hPa
 
Szélsebesség
2.1 m/s
Max
5.1 m/s
Szélirány
160°
 
Csapadék (1 óra)
0.0 mm
 
Látótávolság
20000 m
 
RVR
>1500 m RWY30
 
1. felhőréteg mennyisége
0 octa
 
1. felhőréteg alapja
m